Terminal Aerodrome Forecast
Issued by NWS

Home | Current Version | Previous Version | Text Only | Print | Product List | Glossary On
Versions: 1 2 3 4 5 6 7 8 9 10 11 12 13 14 15 16 17 18 19
000
FTUS45 KTFX 222300
TAFHVR
TAF
KHVR 222327Z 2300/2324 25025G32KT P6SM VCSH OVC060
     FM230300 28020KT P6SM OVC035
     FM231600 29013KT P6SM SCT050=

USA.gov is the U.S. government's official web portal to all federal, state and local government web resources and services.